Latest Coastal Weather Observations for Ulladulla

IDN60701

Issued at 9:21 pm EDT Saturday 22 February 2020 (issued every 10 minutes, with the page automatically refreshed every 10 minutes)

About coastal observations | Map of coastal stations | Coastal observations for NSW | Marine services | Other Formats
Station Details ID: 069138 Name: ULLADULLA AWS Lat: -35.36 Lon: 150.48 Height: 35.7 m
Data from the previous 72 hours. | See also: Recent months at Ulladulla
Date/Time
EDT
Wind Sea
Height
m
Swell Vis
km
Cloud Weather Temp
°C
Press
hPa
Rain since
9am
mm
Dir  Spd
kts
Gust
kts
Height
m
Period
s
Dir
22/09:00pm NE 8 14 - - - - - - - 20.4 1024.3 0.0
22/08:30pm NE 8 15 - - - - - - - 20.4 1024.0 0.0
22/08:00pm NE 9 14 - - - - - - - 20.4 1023.8 0.0
22/07:30pm NE 10 15 - - - - - - - 20.4 1023.5 0.0
22/07:00pm NE 7 13 - - - - - - - 20.4 1023.4 0.0
22/06:30pm NE 5 9 - - - - - - - 20.2 1023.3 0.0
22/06:00pm NE 6 10 - - - - - - - 20.2 1023.3 0.0
22/05:30pm NE 4 7 - - - - - - - 20.1 1023.4 0.0
22/05:00pm NE 4 9 - - - - - - - 20.1 1023.4 0.0
22/04:30pm ENE 4 8 - - - - - - - 20.1 1023.5 0.0
22/04:00pm ENE 3 6 - - - - - - - 20.1 1023.6 0.0
22/03:30pm E 4 8 - - - - - - - 20.2 1023.8 0.0
22/03:00pm SE 3 5 - - - - - - - 20.3 1024.0 0.0
22/02:30pm ESE 3 6 - - - - - - - 20.3 1024.2 0.0
22/02:00pm SE 3 5 - - - - - - - 20.4 1024.4 0.0
22/01:30pm S 3 4 - - - - - - - 19.4 1024.6 0.0
22/01:00pm SSE 3 5 - - - - - - - 19.1 1024.8 0.0
22/12:30pm S 2 4 - - - - - - - 18.8 1025.2 0.0
22/12:00pm S 4 5 - - - - - - - 18.9 1025.6 0.0
22/11:30am SSW 5 6 - - - - - - - 19.1 1025.6 0.0
22/11:00am SSW 5 8 - - - - - - - 19.5 1025.4 0.0
22/10:30am SW 5 7 - - - - - - - 17.6 1025.6 0.0
22/10:00am WSW 4 7 - - - - - - - 16.9 1025.3 0.0
22/09:30am SW 6 9 - - - - - - - 16.6 1025.1 0.0
22/09:00am WSW 6 10 - - - - - - - 16.6 1024.8 0.4
22/08:30am SW 7 11 - - - - - - - 16.0 1024.4 0.4
22/08:00am SW 7 10 - - - - - - - 15.9 1024.1 0.4
22/07:30am SW 7 13 - - - - - - - 16.1 1023.6 0.4
22/07:00am SW 7 10 - - - - - - - 16.2 1023.3 0.4
22/06:30am SW 7 9 - - - - - - - 16.4 1023.1 0.4
22/06:00am SW 6 10 - - - - - - - 16.4 1022.8 0.4
22/05:30am SW 7 10 - - - - - - - 16.4 1022.7 0.4
22/05:00am SW 6 9 - - - - - - - 16.3 1022.6 0.4
22/04:30am WSW 6 9 - - - - - - - 16.3 1022.4 0.4
22/04:00am WSW 5 7 - - - - - - - 16.3 1022.3 0.4
22/03:30am WSW 5 9 - - - - - - - 16.3 1022.4 0.4
22/03:00am WSW 6 9 - - - - - - - 16.5 1022.4 0.4
22/02:30am WSW 5 9 - - - - - - - 16.5 1022.4 0.4
22/02:00am WSW 6 10 - - - - - - - 16.2 1022.7 0.4
22/01:30am WSW 4 7 - - - - - - - 16.2 1022.7 0.4
22/01:00am W 3 5 - - - - - - - 16.3 1022.8 0.4
22/12:30am W 4 7 - - - - - - - 16.5 1022.7 0.4
22/12:00am SSW 6 10 - - - - - - Recent precip. 16.7 1022.7 0.4
 
Date/Time
EDT
Wind Sea
Height
m
Swell Vis
km
Cloud Weather Temp
°C
Press
hPa
Rain since
9am
mm
Dir  Spd
kts
Gust
kts
Height
m
Period
s
Dir
21/11:30pm SSW 9 16 - - - - - - - 16.9 1022.4 0.2
21/11:00pm S 9 14 - - - - - - - 17.7 1022.3 0.2
21/10:30pm S 6 10 - - - - - - - 17.9 1022.0 0.2
21/10:00pm S 7 9 - - - - - - - 17.4 1021.7 0.2
21/09:30pm SSE 12 18 - - - - - - - 17.8 1021.4 0.2
21/09:00pm S 8 15 - - - - - - - 18.6 1021.0 0.2
21/08:30pm S 7 10 - - - - - - - 18.5 1020.6 0.2
21/08:00pm SSE 8 17 - - - - - - - 18.3 1020.3 0.2
21/07:30pm SSE 8 12 - - - - - - - 18.0 1019.8 0.2
21/07:00pm SSE 7 13 - - - - - - - 18.8 1019.4 0.2
21/06:30pm SSE 5 13 - - - - - - - 18.2 1018.9 0.2
21/06:00pm SE 4 8 - - - - - - - 19.0 1018.4 0.2
21/05:30pm SSE 8 12 - - - - - - - 18.9 1018.1 0.2
21/05:00pm SSE 7 12 - - - - - - - 19.4 1017.7 0.2
21/04:30pm SSE 6 9 - - - - - - - 19.5 1017.4 0.2
21/04:00pm SSE 4 8 - - - - - - - 19.9 1017.3 0.2
21/03:30pm SSE 6 9 - - - - - - - 20.0 1017.2 0.2
21/03:00pm SE 6 9 - - - - - - - 19.7 1017.4 0.2
21/02:30pm SE 5 8 - - - - - - - 19.9 1017.5 0.2
21/02:00pm SE 6 10 - - - - - - - 19.9 1017.4 0.2
21/01:30pm SE 5 10 - - - - - - - 20.7 1017.5 0.2
21/01:00pm SE 5 8 - - - - - - - 20.6 1017.3 0.2
21/12:30pm SE 4 7 - - - - - - - 20.4 1017.5 0.2
21/12:00pm SE 4 7 - - - - - - - 20.4 1017.6 0.2
21/11:30am SE 4 6 - - - - - - - 20.1 1017.7 0.2
21/11:00am ESE 2 3 - - - - - - - 19.4 1017.7 0.2
21/10:30am SSE 2 5 - - - - - - - 18.9 1017.6 0.2
21/10:00am SSE 2 4 - - - - - - - 18.5 1017.3 0.2
21/09:30am W 1 3 - - - - - - - 18.3 1017.1 0.2
21/09:00am NNW 2 3 - - - - - - Rain 17.9 1017.0 1.2
21/08:30am NW 1 3 - - - - - - - 18.2 1016.7 0.6
21/08:00am SSE 3 5 - - - - - - - 18.3 1016.5 0.6
21/07:30am SSE 4 8 - - - - - - - 18.2 1016.0 0.4
21/07:00am SE 1 3 - - - - - - - 18.0 1015.7 0.4
21/06:30am SE 2 3 - - - - - - - 18.1 1015.2 0.4
21/06:00am SE 4 6 - - - - - - - 18.0 1015.1 0.4
21/05:30am SSE 4 6 - - - - - - - 18.0 1015.0 0.4
21/05:00am SE 3 5 - - - - - - - 18.0 1014.5 0.4
21/04:30am SE 3 5 - - - - - - - 18.0 1014.3 0.4
21/04:00am ESE 2 3 - - - - - - - 17.9 1014.6 0.4
21/03:30am ESE 2 5 - - - - - - - 18.2 1014.6 0.4
21/03:00am CALM 0 2 - - - - - - Recent precip. 18.1 1014.8 0.4
21/02:30am CALM 0 0 - - - - - - - 18.1 1014.8 0.4
21/02:00am E 2 3 - - - - - - - 17.9 1014.9 0.2
21/01:30am NE 2 3 - - - - - - - 18.2 1015.1 0.2
21/01:00am CALM 0 0 - - - - - - - 19.0 1015.1 0.0
21/12:30am ESE 1 3 - - - - - - - 19.1 1015.0 0.0
21/12:00am CALM 0 0 - - - - - - - 19.2 1015.0 0.0
 
Date/Time
EDT
Wind Sea
Height
m
Swell Vis
km
Cloud Weather Temp
°C
Press
hPa
Rain since
9am
mm
Dir  Spd
kts
Gust
kts
Height
m
Period
s
Dir
20/11:30pm ESE 2 3 - - - - - - - 19.3 1014.8 0.0
20/11:00pm SE 1 3 - - - - - - - 19.6 1014.9 0.0
20/10:30pm SE 2 4 - - - - - - - 19.6 1014.7 0.0
20/10:00pm SE 2 4 - - - - - - - 19.6 1014.6 0.0
20/09:30pm SE 3 5 - - - - - - - 19.7 1014.4 0.0
20/09:00pm SE 3 6 - - - - - - - 19.7 1014.1 0.0
20/08:30pm SE 3 6 - - - - - - - 19.8 1013.7 0.0
20/08:00pm SSE 5 7 - - - - - - - 19.8 1013.2 0.0
20/07:30pm SE 5 8 - - - - - - - 19.8 1012.8 0.0
20/07:00pm SSE 4 7 - - - - - - - 20.0 1012.4 0.0
20/06:30pm SSE 5 8 - - - - - - - 20.1 1012.2 0.0
20/06:00pm SSE 5 8 - - - - - - - 20.3 1011.8 0.0
20/05:30pm SSE 6 9 - - - - - - - 20.6 1011.7 0.0
20/05:00pm SSE 5 10 - - - - - - - 21.9 1011.7 0.0
20/04:30pm SSE 7 10 - - - - - - - 21.7 1011.6 0.0
20/04:00pm SSE 7 11 - - - - - - - 21.5 1011.4 0.0
20/03:30pm SSE 8 12 - - - - - - - 21.5 1011.3 0.0
20/03:00pm SSE 7 11 - - - - - - - 21.7 1011.5 0.0
20/02:30pm SE 6 10 - - - - - - - 22.1 1011.5 0.0
20/02:00pm SSE 8 11 - - - - - - - 21.6 1011.5 0.0
20/01:30pm SSE 9 14 - - - - - - - 21.4 1011.5 0.0
20/01:00pm SSE 9 14 - - - - - - - 21.4 1011.5 0.0
20/12:30pm SSE 8 12 - - - - - - - 21.3 1011.9 0.0
20/12:00pm SSE 7 9 - - - - - - - 21.0 1012.0 0.0
20/11:30am SSE 8 10 - - - - - - - 21.0 1011.8 0.0
20/11:00am SSE 6 9 - - - - - - - 20.7 1011.8 0.0
20/10:30am SSE 5 7 - - - - - - - 20.5 1011.5 0.0
20/10:00am SSE 5 8 - - - - - - - 20.2 1011.5 0.0
20/09:30am S 8 10 - - - - - - - 19.6 1011.3 0.0
20/09:00am SSW 6 9 - - - - - - - 19.6 1011.1 2.6
20/08:30am SSW 5 7 - - - - - - - 19.0 1010.8 2.6
20/08:00am SW 4 6 - - - - - - - 17.9 1010.6 2.6
20/07:30am SW 4 6 - - - - - - - 17.0 1010.2 2.6
20/07:00am SSW 5 7 - - - - - - - 15.7 1009.7 2.6
20/06:30am SW 6 8 - - - - - - - 15.8 1009.3 2.6
20/06:00am SW 5 9 - - - - - - - 15.7 1008.8 2.6
20/05:30am SW 6 10 - - - - - - - 16.1 1008.3 2.6
20/05:00am SW 7 10 - - - - - - - 16.5 1008.0 2.6
20/04:30am SW 5 8 - - - - - - - 16.4 1007.7 2.6
20/04:00am SW 5 7 - - - - - - - 16.6 1007.6 2.6
20/03:30am SW 5 6 - - - - - - - 17.0 1007.4 2.6
20/03:00am SSW 9 14 - - - - - - - 18.2 1007.3 2.6
20/02:30am SSW 6 9 - - - - - - - 17.4 1007.6 2.6
20/02:00am SW 5 9 - - - - - - - 17.1 1007.7 2.6
20/01:30am SSW 3 4 - - - - - - - 16.6 1007.7 2.6
20/01:00am W 2 3 - - - - - - - 16.2 1007.7 2.6
20/12:30am WSW 2 3 - - - - - - - 16.8 1007.6 2.2
20/12:00am SSW 3 4 - - - - - - - 17.6 1007.7 2.0
 
Date/Time
EDT
Wind Sea
Height
m
Swell Vis
km
Cloud Weather Temp
°C
Press
hPa
Rain since
9am
mm
Dir  Spd
kts
Gust
kts
Height
m
Period
s
Dir
19/11:30pm SW 4 6 - - - - - - - 17.4 1007.6 2.0
19/11:00pm W 3 5 - - - - - - - 17.6 1007.6 2.0
19/10:30pm WNW 3 5 - - - - - - - 18.1 1007.3 2.0
19/10:00pm WNW 3 6 - - - - - - - 18.4 1007.3 2.0
19/09:30pm WNW 4 6 - - - - - - - 18.3 1007.2 2.0

Other formats

Comma delimited format used in spreadsheet applications
http://www.bom.gov.au/fwo/IDN60701/IDN60701.94938.axf

JavaScript Object Notation format (JSON) in row-major order
http://www.bom.gov.au/fwo/IDN60701/IDN60701.94938.json

Data quality

Most of these data are generated automatically and are frequently updated. Quality checks on data are not normally performed. It is possible for incorrect values to appear. Refer to information at About Latest Weather Observations and please check the disclaimer before using these data.